Terminal Aerodrome Forecast
Issued by NWS Missoula, MT

Home | Current Version | Previous Version | Text Only | Print | Product List | Glossary On
Versions: 1 2 3 4 5 6 7 8 9 10 11 12 13 14 15 16 17 18 19 20
000
FTUS45 KMSO 161120
TAFGPI
TAF
KGPI 161120Z 1612/1712 21005KT 6SM BR SCT040 OVC050
     FM161500 20005KT 4SM BR BKN025 OVC040
     FM161800 22005KT P6SM OVC050=

USA.gov is the U.S. government's official web portal to all federal, state and local government web resources and services.